createdAt,value
2018-01-07T00:00:37.543Z,101547.31
2018-01-07T00:03:13.026Z,101546.80
2018-01-07T00:05:47.839Z,101556.09
2018-01-07T00:08:23.016Z,101558.76
2018-01-07T00:10:57.895Z,101563.06
2018-01-07T00:13:33.284Z,101565.51
2018-01-07T00:16:07.947Z,101573.66
2018-01-07T00:18:43.024Z,101575.85
2018-01-07T00:21:18.476Z,101574.08
2018-01-07T00:23:53.239Z,101584.70
2018-01-07T00:26:27.820Z,101584.85
2018-01-07T00:29:03.085Z,101586.67
2018-01-07T00:31:38.379Z,101594.38
2018-01-07T00:34:13.239Z,101596.23
2018-01-07T00:36:48.254Z,101599.16
2018-01-07T00:39:22.895Z,101608.72
2018-01-07T00:41:57.920Z,101610.65
2018-01-07T00:44:33.075Z,101610.34
2018-01-07T00:47:08.264Z,101605.34
2018-01-07T00:49:42.934Z,101611.20
2018-01-07T00:52:17.997Z,101619.05
2018-01-07T00:54:53.264Z,101619.87
2018-01-07T00:57:28.818Z,101625.52
2018-01-07T01:00:03.187Z,101636.73
2018-01-07T01:02:37.767Z,101637.19
2018-01-07T01:05:13.211Z,101652.81
2018-01-07T01:07:48.259Z,101646.80
2018-01-07T01:10:22.868Z,101654.03
2018-01-07T01:12:58.151Z,101659.58
2018-01-07T01:15:32.951Z,101657.45
2018-01-07T01:18:07.646Z,101663.13
2018-01-07T01:20:43.095Z,101673.09
2018-01-07T01:23:18.068Z,101673.49
2018-01-07T01:25:53.175Z,101676.16
2018-01-07T01:28:28.384Z,101680.40
2018-01-07T01:31:03.955Z,101683.44
2018-01-07T01:33:38.375Z,101690.38
2018-01-07T01:36:13.152Z,101694.38
2018-01-07T01:38:48.187Z,101699.17
2018-01-07T01:41:23.404Z,101702.28
2018-01-07T01:43:58.362Z,101710.80
2018-01-07T01:46:33.463Z,101712.82
2018-01-07T01:49:19.612Z,101713.33
2018-01-07T01:51:54.513Z,101723.56
2018-01-07T01:54:29.071Z,101737.85
2018-01-07T01:57:04.232Z,101735.42
2018-01-07T01:59:39.404Z,101747.02
2018-01-07T02:02:14.966Z,101738.50
2018-01-07T02:04:50.100Z,101740.76
2018-01-07T02:07:25.286Z,101743.91
2018-01-07T02:10:01.476Z,101745.30
2018-01-07T02:12:36.659Z,101750.09
2018-01-07T02:15:11.370Z,101762.81
2018-01-07T02:17:46.079Z,101760.84
2018-01-07T02:20:21.268Z,101762.10
2018-01-07T02:22:56.550Z,101757.34
2018-01-07T02:25:31.334Z,101762.78
2018-01-07T02:28:06.090Z,101771.20
2018-01-07T02:30:41.232Z,101778.98
2018-01-07T02:33:16.388Z,101785.86
2018-01-07T02:35:50.756Z,101790.20
2018-01-07T02:38:26.235Z,101794.81
2018-01-07T02:41:01.549Z,101802.53
2018-01-07T02:43:37.112Z,101805.55
2018-01-07T02:46:12.502Z,101810.98
2018-01-07T02:48:47.500Z,101811.52
2018-01-07T02:51:22.667Z,101818.12
2018-01-07T02:53:58.236Z,101831.10
2018-01-07T02:56:33.269Z,101840.15
2018-01-07T02:59:08.688Z,101832.47
2018-01-07T03:01:44.257Z,101847.28
2018-01-07T03:04:19.349Z,101857.34
2018-01-07T03:06:53.389Z,101853.02
2018-01-07T03:09:28.881Z,101862.31
2018-01-07T03:12:04.464Z,101866.49
2018-01-07T03:14:39.756Z,101878.43
2018-01-07T03:17:15.240Z,101886.39
2018-01-07T03:19:50.420Z,101881.53
2018-01-07T03:22:25.596Z,101894.47
2018-01-07T03:25:01.710Z,101889.61
2018-01-07T03:27:36.347Z,101900.32
2018-01-07T03:30:11.326Z,101893.45
2018-01-07T03:32:46.551Z,101909.98
2018-01-07T03:35:21.709Z,101912.38
2018-01-07T03:37:56.685Z,101909.48
2018-01-07T03:40:31.040Z,101915.98
2018-01-07T03:43:06.520Z,101916.95
2018-01-07T03:45:41.443Z,101923.92
2018-01-07T03:48:15.520Z,101921.73
2018-01-07T03:50:50.372Z,101927.08
2018-01-07T03:53:25.405Z,101929.34
2018-01-07T03:56:01.669Z,101931.20
2018-01-07T03:58:36.907Z,101930.78
2018-01-07T04:01:11.810Z,101930.39
2018-01-07T04:03:46.796Z,101937.91
2018-01-07T04:06:21.377Z,101935.48
2018-01-07T04:08:57.415Z,101943.55
2018-01-07T04:11:32.394Z,101944.36
2018-01-07T04:14:07.704Z,101946.67
2018-01-07T04:16:42.159Z,101957.42
2018-01-07T04:19:16.751Z,101952.94
2018-01-07T04:21:51.976Z,101953.55
2018-01-07T04:24:26.668Z,101955.77
2018-01-07T04:27:01.885Z,101962.45
2018-01-07T04:29:36.549Z,101963.91
2018-01-07T04:32:11.528Z,101968.02
2018-01-07T04:34:46.779Z,101966.52
2018-01-07T04:37:21.798Z,101977.59
2018-01-07T04:39:56.557Z,101977.66
2018-01-07T04:42:31.508Z,101988.28
2018-01-07T04:45:06.663Z,101991.22
2018-01-07T04:47:41.936Z,101993.73
2018-01-07T04:50:17.677Z,101995.91
2018-01-07T04:52:52.633Z,102001.17
2018-01-07T04:55:27.814Z,102007.57
2018-01-07T04:58:02.962Z,102012.48
2018-01-07T05:00:38.576Z,102014.74
2018-01-07T05:03:13.509Z,102027.99
2018-01-07T05:05:48.780Z,102027.20
2018-01-07T05:08:23.482Z,102027.16
2018-01-07T05:10:58.796Z,102026.27
2018-01-07T05:13:33.546Z,102029.80
2018-01-07T05:16:08.870Z,102033.91
2018-01-07T05:18:43.533Z,102036.67
2018-01-07T05:21:18.132Z,102043.73
2018-01-07T05:23:52.821Z,102046.61
2018-01-07T05:26:27.653Z,102050.73
2018-01-07T05:29:02.696Z,102060.97
2018-01-07T05:31:37.168Z,102059.11
2018-01-07T05:34:12.423Z,102064.87
2018-01-07T05:36:47.737Z,102057.40
2018-01-07T05:39:23.015Z,102064.65
2018-01-07T05:41:57.772Z,102071.52
2018-01-07T05:44:33.098Z,102081.17
2018-01-07T05:47:08.869Z,102089.13
2018-01-07T05:49:43.851Z,102094.89
2018-01-07T05:52:19.120Z,102090.45
2018-01-07T05:54:53.844Z,102096.22
2018-01-07T05:57:28.796Z,102103.44
2018-01-07T06:00:03.824Z,102105.59
2018-01-07T06:02:39.000Z,102107.30
2018-01-07T06:05:14.296Z,102112.59
2018-01-07T06:07:49.005Z,102118.49
2018-01-07T06:10:23.968Z,102130.65
2018-01-07T06:12:58.951Z,102131.87
2018-01-07T06:15:34.108Z,102140.45
2018-01-07T06:18:09.615Z,102141.41
2018-01-07T06:20:44.868Z,102142.79
2018-01-07T06:23:20.151Z,102138.00
2018-01-07T06:25:55.765Z,102146.69
2018-01-07T06:28:30.760Z,102150.28
2018-01-07T06:31:05.253Z,102166.06
2018-01-07T06:33:39.843Z,102171.33
2018-01-07T06:36:14.759Z,102160.70
2018-01-07T06:38:50.175Z,102177.11
2018-01-07T06:41:25.136Z,102174.30
2018-01-07T06:44:00.738Z,102177.58
2018-01-07T06:46:35.868Z,102189.47
2018-01-07T06:49:10.999Z,102182.09
2018-01-07T06:51:45.458Z,102194.42
2018-01-07T06:54:20.823Z,102191.71
2018-01-07T06:56:55.498Z,102201.50
2018-01-07T06:59:30.380Z,102202.03
2018-01-07T07:02:05.152Z,102212.77
2018-01-07T07:04:39.910Z,102214.56
2018-01-07T07:07:14.849Z,102231.33
2018-01-07T07:09:50.131Z,102233.63
2018-01-07T07:12:25.692Z,102238.82
2018-01-07T07:15:02.287Z,102252.16
2018-01-07T07:17:37.181Z,102252.66
2018-01-07T07:20:11.871Z,102265.14
2018-01-07T07:22:47.181Z,102260.23
2018-01-07T07:25:22.794Z,102260.66
2018-01-07T07:27:57.191Z,102268.22
2018-01-07T07:30:32.976Z,102268.66
2018-01-07T07:33:08.057Z,102264.86
2018-01-07T07:35:42.903Z,102266.19
2018-01-07T07:38:18.017Z,102287.33
2018-01-07T07:40:52.581Z,102299.27
2018-01-07T07:43:27.064Z,102308.05
2018-01-07T07:46:02.461Z,102319.54
2018-01-07T07:48:37.836Z,102319.23
2018-01-07T07:51:12.207Z,102321.70
2018-01-07T07:53:46.864Z,102325.16
2018-01-07T07:56:21.965Z,102328.29
2018-01-07T07:58:56.800Z,102325.30
2018-01-07T08:01:31.181Z,102330.19
2018-01-07T08:04:06.116Z,102324.37
2018-01-07T08:06:41.022Z,102334.11
2018-01-07T08:09:15.355Z,102342.78
2018-01-07T08:11:50.627Z,102343.74
2018-01-07T08:14:25.273Z,102337.91
2018-01-07T08:17:00.043Z,102346.25
2018-01-07T08:19:35.263Z,102349.88
2018-01-07T08:22:10.072Z,102363.53
2018-01-07T08:24:45.272Z,102366.69
2018-01-07T08:27:20.427Z,102383.91
2018-01-07T08:29:55.083Z,102384.78
2018-01-07T08:32:30.092Z,102395.38
2018-01-07T08:35:05.552Z,102396.29
2018-01-07T08:37:41.136Z,102402.05
2018-01-07T08:40:16.411Z,102402.34
2018-01-07T08:42:51.434Z,102407.99
2018-01-07T08:45:26.547Z,102400.23
2018-01-07T08:48:02.532Z,102407.22
2018-01-07T08:50:37.321Z,102412.52
2018-01-07T08:53:12.578Z,102428.83
2018-01-07T08:55:48.206Z,102430.21
2018-01-07T08:58:23.188Z,102440.88
2018-01-07T09:00:57.663Z,102446.04
2018-01-07T09:03:33.180Z,102448.30
2018-01-07T09:06:08.425Z,102456.58
2018-01-07T09:08:43.093Z,102462.63
2018-01-07T09:11:17.673Z,102467.72
2018-01-07T09:13:52.247Z,102468.05
2018-01-07T09:16:26.642Z,102474.55
2018-01-07T09:19:02.569Z,102469.74
2018-01-07T09:21:37.229Z,102477.75
2018-01-07T09:24:11.599Z,102484.34
2018-01-07T09:26:46.348Z,102478.09
2018-01-07T09:29:21.478Z,102480.30
2018-01-07T09:31:57.059Z,102474.72
2018-01-07T09:34:32.150Z,102494.33
2018-01-07T09:37:07.503Z,102490.32
2018-01-07T09:39:42.680Z,102494.26
2018-01-07T09:42:18.352Z,102493.77
2018-01-07T09:44:53.244Z,102497.76
2018-01-07T09:47:28.632Z,102492.56
2018-01-07T09:50:03.805Z,102501.03
2018-01-07T09:52:39.310Z,102501.78
2018-01-07T09:55:13.854Z,102499.95
2018-01-07T09:57:49.307Z,102491.95
2018-01-07T10:00:24.053Z,102496.77
2018-01-07T10:02:59.438Z,102492.75
2018-01-07T10:05:34.709Z,102499.34
2018-01-07T10:08:09.942Z,102492.77
2018-01-07T10:10:45.319Z,102490.48
2018-01-07T10:13:20.724Z,102491.05
2018-01-07T10:15:55.466Z,102489.59
2018-01-07T10:18:30.279Z,102485.08
2018-01-07T10:21:05.441Z,102484.70
2018-01-07T10:23:40.436Z,102488.47
2018-01-07T10:26:15.618Z,102492.49
2018-01-07T10:28:50.907Z,102491.02
2018-01-07T10:31:25.628Z,102496.39
2018-01-07T10:34:00.915Z,102497.61
2018-01-07T10:36:36.529Z,102502.15
2018-01-07T10:39:11.933Z,102501.55
2018-01-07T10:41:46.447Z,102510.21
2018-01-07T10:44:21.413Z,102496.71
2018-01-07T10:46:56.194Z,102516.18
2018-01-07T10:49:30.968Z,102507.02
2018-01-07T10:52:06.440Z,102518.69
2018-01-07T10:54:41.492Z,102523.23
2018-01-07T10:57:16.760Z,102521.55
2018-01-07T10:59:51.956Z,102515.46
2018-01-07T11:02:33.109Z,102518.85
2018-01-07T11:05:08.526Z,102523.61
2018-01-07T11:07:43.616Z,102523.33
2018-01-07T11:10:18.934Z,102521.20
2018-01-07T11:12:53.557Z,102527.91
2018-01-07T11:15:28.559Z,102531.12
2018-01-07T11:18:03.401Z,102524.57
2018-01-07T11:20:38.657Z,102529.40
2018-01-07T11:23:13.924Z,102526.98
2018-01-07T11:25:48.887Z,102529.09
2018-01-07T11:28:24.070Z,102521.03
2018-01-07T11:30:58.848Z,102526.27
2018-01-07T11:33:33.526Z,102525.89
2018-01-07T11:36:08.218Z,102525.33
2018-01-07T11:38:42.992Z,102531.73
2018-01-07T11:41:18.063Z,102526.33
2018-01-07T11:43:53.532Z,102532.48
2018-01-07T11:46:28.495Z,102532.84
2018-01-07T11:49:02.989Z,102526.13
2018-01-07T11:51:38.486Z,102529.07
2018-01-07T11:54:13.772Z,102532.91
2018-01-07T11:56:48.812Z,102530.88
2018-01-07T11:59:23.975Z,102538.87
2018-01-07T12:01:58.730Z,102539.41
2018-01-07T12:04:33.704Z,102546.39
2018-01-07T12:07:08.945Z,102542.78
2018-01-07T12:09:44.701Z,102540.54
2018-01-07T12:12:19.682Z,102544.53
2018-01-07T12:14:54.888Z,102544.42
2018-01-07T12:17:29.253Z,102548.78
2018-01-07T12:20:04.805Z,102536.80
2018-01-07T12:22:40.020Z,102543.05
2018-01-07T12:25:14.732Z,102545.69
2018-01-07T12:27:49.913Z,102552.76
2018-01-07T12:30:24.283Z,102547.43
2018-01-07T12:32:58.874Z,102547.06
2018-01-07T12:35:33.672Z,102538.50
2018-01-07T12:38:09.009Z,102540.24
2018-01-07T12:40:43.523Z,102534.50
2018-01-07T12:43:19.124Z,102533.56
2018-01-07T12:45:53.659Z,102536.01
2018-01-07T12:48:29.098Z,102533.61
2018-01-07T12:51:03.763Z,102525.39
2018-01-07T12:53:38.823Z,102529.30
2018-01-07T12:56:14.203Z,102530.57
2018-01-07T12:58:49.172Z,102529.48
2018-01-07T13:01:25.056Z,102529.13
2018-01-07T13:03:59.859Z,102531.77
2018-01-07T13:06:34.971Z,102524.61
2018-01-07T13:09:10.232Z,102532.23
2018-01-07T13:11:45.333Z,102537.74
2018-01-07T13:14:19.812Z,102534.03
2018-01-07T13:16:54.985Z,102536.59
2018-01-07T13:19:30.140Z,102540.59
2018-01-07T13:22:05.041Z,102535.14
2018-01-07T13:24:40.251Z,102533.88
2018-01-07T13:27:15.099Z,102539.72
2018-01-07T13:29:49.799Z,102525.94
2018-01-07T13:32:25.117Z,102532.87
2018-01-07T13:34:59.799Z,102537.72
2018-01-07T13:37:35.018Z,102528.17
2018-01-07T13:40:10.283Z,102537.02
2018-01-07T13:42:44.744Z,102533.64
2018-01-07T13:45:19.919Z,102530.98
2018-01-07T13:47:55.121Z,102534.31
2018-01-07T13:50:29.793Z,102526.37
2018-01-07T13:53:05.199Z,102528.27
2018-01-07T13:55:40.308Z,102533.22
2018-01-07T13:58:14.900Z,102531.94
2018-01-07T14:00:50.267Z,102521.98
2018-01-07T14:03:25.464Z,102525.84
2018-01-07T14:05:59.944Z,102524.95
2018-01-07T14:08:34.339Z,102528.25
2018-01-07T14:11:09.146Z,102533.48
2018-01-07T14:13:44.153Z,102533.64
2018-01-07T14:16:19.346Z,102535.16
2018-01-07T14:18:53.987Z,102541.17
2018-01-07T14:21:28.981Z,102534.48
2018-01-07T14:24:04.355Z,102541.95
2018-01-07T14:26:39.857Z,102535.06
2018-01-07T14:29:15.067Z,102543.45
2018-01-07T14:31:50.351Z,102543.88
2018-01-07T14:34:25.880Z,102545.51
2018-01-07T14:37:01.046Z,102546.78
2018-01-07T14:39:35.072Z,102538.08
2018-01-07T14:42:09.866Z,102552.37
2018-01-07T14:44:45.140Z,102549.05
2018-01-07T14:47:19.572Z,102556.75
2018-01-07T14:49:54.943Z,102559.20
2018-01-07T14:52:30.217Z,102553.27
2018-01-07T14:55:05.402Z,102556.77
2018-01-07T14:57:40.019Z,102559.33
2018-01-07T15:00:15.263Z,102560.31
2018-01-07T15:02:50.035Z,102562.61
2018-01-07T15:05:25.119Z,102562.59
2018-01-07T15:07:59.568Z,102568.84
2018-01-07T15:10:35.024Z,102571.97
2018-01-07T15:13:10.400Z,102565.55
2018-01-07T15:15:46.083Z,102567.39
2018-01-07T15:18:21.368Z,102572.72
2018-01-07T15:20:56.412Z,102569.17
2018-01-07T15:23:31.422Z,102564.02
2018-01-07T15:26:07.103Z,102571.18
2018-01-07T15:28:41.859Z,102572.98
2018-01-07T15:31:16.308Z,102580.11
2018-01-07T15:33:51.106Z,102574.47
2018-01-07T15:36:26.185Z,102576.82
2018-01-07T15:39:01.459Z,102572.91
2018-01-07T15:41:36.296Z,102570.23
2018-01-07T15:44:10.468Z,102573.58
2018-01-07T15:46:44.795Z,102576.35
2018-01-07T15:49:19.469Z,102583.11
2018-01-07T15:51:54.109Z,102588.44
2018-01-07T15:54:29.224Z,102589.33
2018-01-07T15:57:04.816Z,102588.44
2018-01-07T15:59:39.796Z,102584.00
2018-01-07T16:02:15.351Z,102589.81
2018-01-07T16:04:50.020Z,102595.56
2018-01-07T16:07:25.180Z,102593.89
2018-01-07T16:10:00.262Z,102599.78
2018-01-07T16:12:35.519Z,102593.25
2018-01-07T16:15:10.746Z,102604.39
2018-01-07T16:17:45.894Z,102603.08
2018-01-07T16:20:20.482Z,102603.08
2018-01-07T16:22:55.360Z,102610.27
2018-01-07T16:25:30.324Z,102615.08
2018-01-07T16:28:05.179Z,102614.27
2018-01-07T16:30:40.271Z,102612.94
2018-01-07T16:33:15.723Z,102623.09
2018-01-07T16:35:50.696Z,102615.28
2018-01-07T16:38:25.751Z,102618.42
2018-01-07T16:41:00.036Z,102627.34
2018-01-07T16:43:34.585Z,102624.33
2018-01-07T16:46:09.750Z,102621.20
2018-01-07T16:48:44.312Z,102621.25
2018-01-07T16:51:19.659Z,102625.69
2018-01-07T16:53:54.643Z,102623.93
2018-01-07T16:56:29.294Z,102616.02
2018-01-07T16:59:04.535Z,102611.25
2018-01-07T17:01:39.727Z,102611.32
2018-01-07T17:04:15.313Z,102613.48
2018-01-07T17:06:50.533Z,102615.25
2018-01-07T17:09:25.403Z,102614.38
2018-01-07T17:12:00.583Z,102611.23
2018-01-07T17:14:35.642Z,102620.09
2018-01-07T17:17:10.153Z,102622.84
2018-01-07T17:19:45.413Z,102629.52
2018-01-07T17:22:20.424Z,102626.09
2018-01-07T17:24:55.431Z,102621.72
2018-01-07T17:27:30.603Z,102626.26
2018-01-07T17:30:05.760Z,102634.59
2018-01-07T17:32:40.529Z,102637.36
2018-01-07T17:35:15.825Z,102636.48
2018-01-07T17:37:50.515Z,102644.83
2018-01-07T17:40:24.870Z,102648.39
2018-01-07T17:42:59.472Z,102647.48
2018-01-07T17:45:33.833Z,102648.41
2018-01-07T17:48:08.750Z,102644.84
2018-01-07T17:50:43.944Z,102656.34
2018-01-07T17:53:19.395Z,102664.75
2018-01-07T17:55:54.760Z,102662.59
2018-01-07T17:58:29.915Z,102671.48
2018-01-07T18:01:05.552Z,102671.47
2018-01-07T18:03:40.597Z,102678.20
2018-01-07T18:06:15.750Z,102679.55
2018-01-07T18:08:50.922Z,102685.73
2018-01-07T18:11:25.480Z,102676.08
2018-01-07T18:14:00.821Z,102676.97
2018-01-07T18:16:35.583Z,102687.13
2018-01-07T18:19:10.876Z,102698.18
2018-01-07T18:21:46.057Z,102697.80
2018-01-07T18:24:20.620Z,102693.44
2018-01-07T18:26:55.584Z,102701.39
2018-01-07T18:29:30.671Z,102695.28
2018-01-07T18:32:05.891Z,102703.70
2018-01-07T18:34:40.656Z,102706.80
2018-01-07T18:37:15.592Z,102703.78
2018-01-07T18:39:50.132Z,102713.08
2018-01-07T18:42:24.803Z,102705.11
2018-01-07T18:44:59.556Z,102706.39
2018-01-07T18:47:34.829Z,102715.33
2018-01-07T18:50:09.900Z,102703.84
2018-01-07T18:52:44.963Z,102705.61
2018-01-07T18:55:19.639Z,102711.81
2018-01-07T18:57:54.796Z,102697.68
2018-01-07T19:00:29.907Z,102705.22
2018-01-07T19:03:04.319Z,102706.12
2018-01-07T19:05:38.887Z,102711.41
2018-01-07T19:08:13.767Z,102704.82
2018-01-07T19:10:48.735Z,102711.95
2018-01-07T19:13:23.900Z,102712.90
2018-01-07T19:15:58.970Z,102706.69
2018-01-07T19:18:34.536Z,102707.52
2018-01-07T19:21:09.934Z,102701.42
2018-01-07T19:23:45.240Z,102702.30
2018-01-07T19:26:20.710Z,102702.28
2018-01-07T19:28:55.917Z,102696.58
2018-01-07T19:31:31.002Z,102687.34
2018-01-07T19:34:06.602Z,102703.66
2018-01-07T19:36:41.731Z,102702.31
2018-01-07T19:39:16.999Z,102707.60
2018-01-07T19:41:52.151Z,102720.36
2018-01-07T19:44:26.771Z,102711.55
2018-01-07T19:47:02.122Z,102715.13
2018-01-07T19:49:37.392Z,102714.26
2018-01-07T19:52:12.774Z,102707.67
2018-01-07T19:54:48.111Z,102716.44
2018-01-07T19:57:22.441Z,102722.59
2018-01-07T19:59:57.717Z,102732.28
2018-01-07T20:02:33.011Z,102727.41
2018-01-07T20:05:08.065Z,102726.45
2018-01-07T20:07:43.151Z,102730.86
2018-01-07T20:10:17.731Z,102729.59
2018-01-07T20:12:52.456Z,102725.68
2018-01-07T20:15:26.834Z,102723.91
2018-01-07T20:18:01.851Z,102718.69
2018-01-07T20:20:36.803Z,102719.19
2018-01-07T20:23:12.111Z,102721.41
2018-01-07T20:25:47.131Z,102714.35
2018-01-07T20:28:22.265Z,102725.32
2018-01-07T20:30:57.187Z,102728.39
2018-01-07T20:33:32.461Z,102726.23
2018-01-07T20:36:08.124Z,102731.58
2018-01-07T20:38:42.979Z,102731.13
2018-01-07T20:41:18.518Z,102741.73
2018-01-07T20:43:53.383Z,102735.52
2018-01-07T20:46:27.995Z,102740.38
2018-01-07T20:49:04.251Z,102739.93
2018-01-07T20:51:38.971Z,102739.04
2018-01-07T20:54:13.868Z,102748.72
2018-01-07T20:56:48.756Z,102743.43
2018-01-07T20:59:23.577Z,102757.99
2018-01-07T21:01:58.248Z,102753.11
2018-01-07T21:04:32.952Z,102756.64
2018-01-07T21:07:08.312Z,102750.02
2018-01-07T21:09:43.372Z,102756.19
2018-01-07T21:12:18.124Z,102753.55
2018-01-07T21:14:52.664Z,102758.85
2018-01-07T21:17:27.210Z,102752.25
2018-01-07T21:20:02.016Z,102746.52
2018-01-07T21:22:37.222Z,102744.30
2018-01-07T21:25:11.898Z,102752.70
2018-01-07T21:27:47.462Z,102746.08
2018-01-07T21:30:22.211Z,102750.92
2018-01-07T21:32:57.492Z,102746.94
2018-01-07T21:35:32.067Z,102740.34
2018-01-07T21:38:06.719Z,102737.70
2018-01-07T21:40:42.278Z,102731.50
2018-01-07T21:43:17.371Z,102729.77
2018-01-07T21:45:52.435Z,102726.66
2018-01-07T21:48:26.928Z,102739.91
2018-01-07T21:51:01.407Z,102733.28
2018-01-07T21:53:37.019Z,102731.95
2018-01-07T21:56:11.736Z,102729.75
2018-01-07T21:58:47.175Z,102728.37
2018-01-07T22:01:33.301Z,102729.26
2018-01-07T22:04:10.771Z,102730.61
2018-01-07T22:06:56.555Z,102731.96
2018-01-07T22:09:31.290Z,102731.53
2018-01-07T22:12:06.146Z,102731.98
2018-01-07T22:14:41.185Z,102719.63
2018-01-07T22:17:16.567Z,102725.80
2018-01-07T22:19:51.659Z,102724.47
2018-01-07T22:22:26.152Z,102719.59
2018-01-07T22:25:01.435Z,102724.92
2018-01-07T22:27:36.354Z,102710.81
2018-01-07T22:30:12.255Z,102720.97
2018-01-07T22:32:47.359Z,102721.85
2018-01-07T22:35:22.668Z,102711.73
2018-01-07T22:37:57.249Z,102715.68
2018-01-07T22:40:32.242Z,102707.72
2018-01-07T22:43:07.580Z,102712.13
2018-01-07T22:45:42.566Z,102699.38
2018-01-07T22:48:18.519Z,102712.17
2018-01-07T22:50:53.256Z,102717.91
2018-01-07T22:53:28.385Z,102712.17
2018-01-07T22:56:04.699Z,102716.16
2018-01-07T22:58:40.243Z,102722.33
2018-01-07T23:01:15.729Z,102716.62
2018-01-07T23:03:50.522Z,102709.98
2018-01-07T23:06:25.287Z,102710.03
2018-01-07T23:08:59.932Z,102712.22
2018-01-07T23:11:35.406Z,102707.77
2018-01-07T23:14:09.797Z,102706.90
2018-01-07T23:16:44.378Z,102710.89
2018-01-07T23:19:19.277Z,102703.39
2018-01-07T23:21:54.526Z,102711.78
2018-01-07T23:24:30.200Z,102710.89
2018-01-07T23:27:05.490Z,102709.16
2018-01-07T23:29:40.644Z,102705.63
2018-01-07T23:32:15.877Z,102713.61
2018-01-07T23:34:51.352Z,102705.64
2018-01-07T23:37:26.532Z,102706.55
2018-01-07T23:40:01.725Z,102702.59
2018-01-07T23:42:36.978Z,102697.72
2018-01-07T23:45:11.708Z,102696.88
2018-01-07T23:47:46.366Z,102697.77
2018-01-07T23:50:20.732Z,102693.80
2018-01-07T23:52:55.492Z,102708.78
2018-01-07T23:55:30.373Z,102699.98
2018-01-07T23:58:05.384Z,102695.98
